This is the latest recevied weather packets stored in our database for station/object KC3SPD-13. If no packets are shown the sender has not sent any weather packets the latest 10 day(s).
| Time | Temp. | Humidity | Pressure | Rain* | Wind** | Luminosity | Snow |
|---|---|---|---|---|---|---|---|
| 1777614004 | 5.56° C | 81% | 966.3 hPa | 0 mm | - | 0 W/m² | - |
| 1777613104 | 5.56° C | 81% | 966.3 hPa | 0 mm | - | 0 W/m² | - |
| 1777611904 | 5.56° C | 82% | 966.4 hPa | 0 mm | - | 0 W/m² | - |
| 1777609505 | 6.11° C | 83% | 966.4 hPa | 0.25 mm | - | 0 W/m² | - |
| 1777608904 | 6.67° C | 80% | 966.2 hPa | 0.25 mm | - | 0 W/m² | - |
| 1777608605 | 6.67° C | 79% | 966.3 hPa | 0.25 mm | - | 0 W/m² | - |
| 1777606204 | 6.67° C | 80% | 966.3 hPa | 0 mm | - | 0 W/m² | - |
| 1777605904 | 6.67° C | 78% | 966.3 hPa | 0 mm | - | 0 W/m² | - |
| 1777603503 | 6.67° C | 78% | 966.2 hPa | 0 mm | - | 0 W/m² | - |
| 1777602904 | 7.22° C | 76% | 966.3 hPa | 0 mm | - | 0 W/m² | - |
| 1777601704 | 7.78° C | 71% | 965.8 hPa | 0 mm | - | 0 W/m² | - |
| 1777601404 | 7.78° C | 70% | 965.8 hPa | 0 mm | - | 0 W/m² | - |
| 1777600804 | 7.22° C | 74% | 965.9 hPa | 0 mm | - | 0 W/m² | - |
| 1777597505 | 7.22° C | 76% | 965.7 hPa | 0 mm | - | 0 W/m² | - |
| 1777596604 | 7.78° C | 71% | 965.8 hPa | 0 mm | - | 0 W/m² | - |
| 1777595104 | 8.33° C | 71% | 965.5 hPa | 0 mm | - | 3 W/m² | - |
| 1777594804 | 8.33° C | 69% | 965.5 hPa | 0 mm | - | 6 W/m² | - |
| 1777593904 | 8.33° C | 71% | 965.3 hPa | 0 mm | - | 16 W/m² | - |
| 1777592103 | 9.44° C | 67% | 964.8 hPa | 0 mm | - | 0 W/m² | - |
| 1777590304 | 10° C | 66% | 965 hPa | 0 mm | - | 0 W/m² | - |
| 1777589404 | 10° C | 67% | 965.1 hPa | 0 mm | - | 0 W/m² | - |
| 1777587304 | 9.44° C | 71% | 965.2 hPa | 0 mm | - | 0 W/m² | - |
| 1777584304 | 10.56° C | 66% | 964.1 hPa | 0 mm | - | 0 W/m² | - |
| 1777582504 | 10° C | 71% | 964.1 hPa | 0 mm | - | 0 W/m² | - |
| 1777581004 | 10° C | 71% | 964.2 hPa | 0 mm | - | 0 W/m² | - |
* Rain latest hour (hover to see other rain measurements)
** Current wind speed in m/s (hover to see current wind gust speed)